createdAt,value
2023-01-08T00:01:25.000Z,6.07
2023-01-08T00:03:51.868Z,6.00
2023-01-08T00:06:21.439Z,6.35
2023-01-08T00:08:50.278Z,5.18
2023-01-08T00:11:17.796Z,7.30
2023-01-08T00:13:44.373Z,7.57
2023-01-08T00:16:16.689Z,7.50
2023-01-08T00:18:44.379Z,8.15
2023-01-08T00:21:12.043Z,12.18
2023-01-08T00:23:41.089Z,10.57
2023-01-08T00:26:11.136Z,8.18
2023-01-08T00:28:42.319Z,8.47
2023-01-08T00:31:11.877Z,7.05
2023-01-08T00:33:43.972Z,6.40
2023-01-08T00:36:16.135Z,4.57
2023-01-08T00:38:43.725Z,4.20
2023-01-08T00:41:14.485Z,3.70
2023-01-08T00:43:43.190Z,3.65
2023-01-08T00:46:09.965Z,3.80
2023-01-08T00:48:41.904Z,6.03
2023-01-08T00:51:09.564Z,6.30
2023-01-08T00:53:38.084Z,7.20
2023-01-08T00:56:07.536Z,8.55
2023-01-08T00:58:36.860Z,8.95
2023-01-08T01:01:10.312Z,8.13
2023-01-08T01:03:37.013Z,8.45
2023-01-08T01:06:08.340Z,7.63
2023-01-08T01:08:39.856Z,7.55
2023-01-08T01:11:36.086Z,6.45
2023-01-08T01:14:02.846Z,6.05
2023-01-08T01:16:29.443Z,6.20
2023-01-08T01:18:57.655Z,5.67
2023-01-08T01:21:33.392Z,6.07
2023-01-08T01:24:04.913Z,6.32
2023-01-08T01:26:32.731Z,7.80
2023-01-08T01:29:00.341Z,6.22
2023-01-08T01:31:29.155Z,5.93
2023-01-08T01:33:59.182Z,6.53
2023-01-08T01:36:26.623Z,6.20
2023-01-08T01:38:57.714Z,6.55
2023-01-08T01:41:26.056Z,6.82
2023-01-08T01:43:54.523Z,7.03
2023-01-08T01:46:26.640Z,6.70
2023-01-08T01:49:01.091Z,6.75
2023-01-08T01:51:32.669Z,6.53
2023-01-08T01:54:02.578Z,6.75
2023-01-08T01:56:30.635Z,6.43
2023-01-08T01:58:59.647Z,6.32
2023-01-08T02:01:27.303Z,6.78
2023-01-08T02:03:56.185Z,8.30
2023-01-08T02:06:22.702Z,8.13
2023-01-08T02:09:08.434Z,8.80
2023-01-08T02:11:43.967Z,9.90
2023-01-08T02:14:35.530Z,9.32
2023-01-08T02:17:11.108Z,8.73
2023-01-08T02:19:55.415Z,8.68
2023-01-08T02:22:35.063Z,8.73
2023-01-08T02:25:13.852Z,8.57
2023-01-08T02:27:45.371Z,9.75
2023-01-08T02:30:17.196Z,10.80
2023-01-08T02:32:44.156Z,15.57
2023-01-08T02:35:11.792Z,14.13
2023-01-08T02:37:41.608Z,15.35
2023-01-08T02:40:17.095Z,12.52
2023-01-08T02:42:49.626Z,13.35
2023-01-08T02:45:37.503Z,14.88
2023-01-08T02:48:19.744Z,7.80
2023-01-08T02:51:12.140Z,5.90
2023-01-08T02:53:45.420Z,6.47
2023-01-08T02:56:15.759Z,6.18
2023-01-08T02:58:48.061Z,6.18
2023-01-08T03:01:17.360Z,6.40
2023-01-08T03:03:49.285Z,6.05
2023-01-08T03:06:19.607Z,6.32
2023-01-08T03:08:48.850Z,6.20
2023-01-08T03:11:18.618Z,7.25
2023-01-08T03:13:45.164Z,10.67
2023-01-08T03:16:17.564Z,10.80
2023-01-08T03:18:55.228Z,11.18
2023-01-08T03:21:22.823Z,8.90
2023-01-08T03:23:52.957Z,6.72
2023-01-08T03:26:24.460Z,8.00
2023-01-08T03:28:54.617Z,9.95
2023-01-08T03:31:25.702Z,10.63
2023-01-08T03:33:55.696Z,10.13
2023-01-08T03:36:29.297Z,10.05
2023-01-08T03:39:04.257Z,10.77
2023-01-08T03:41:37.382Z,10.35
2023-01-08T03:44:06.350Z,9.82
2023-01-08T03:46:40.241Z,11.25
2023-01-08T03:49:10.361Z,13.05
2023-01-08T03:51:47.341Z,12.67
2023-01-08T03:54:20.608Z,13.02
2023-01-08T03:56:47.241Z,12.48
2023-01-08T03:59:17.350Z,11.40
2023-01-08T04:01:44.431Z,10.15
2023-01-08T04:04:16.429Z,10.23
2023-01-08T04:06:43.512Z,10.95
2023-01-08T04:09:10.504Z,9.73
2023-01-08T04:11:39.342Z,10.07
2023-01-08T04:14:08.489Z,9.82
2023-01-08T04:16:35.158Z,10.97
2023-01-08T04:19:02.083Z,9.30
2023-01-08T04:21:28.830Z,9.23
2023-01-08T04:23:58.223Z,9.20
2023-01-08T04:26:24.953Z,9.10
2023-01-08T04:28:51.534Z,9.27
2023-01-08T04:31:20.201Z,11.63
2023-01-08T04:33:46.869Z,12.40
2023-01-08T04:36:13.465Z,16.75
2023-01-08T04:38:42.398Z,17.05
2023-01-08T04:41:08.968Z,12.10
2023-01-08T04:43:38.995Z,10.38
2023-01-08T04:46:09.602Z,10.05
2023-01-08T04:48:36.377Z,10.48
2023-01-08T04:51:04.802Z,11.70
2023-01-08T04:53:35.065Z,10.40
2023-01-08T04:56:12.536Z,10.65
2023-01-08T04:58:42.371Z,10.35
2023-01-08T05:01:24.847Z,10.07
2023-01-08T05:04:00.113Z,8.90
2023-01-08T05:06:30.637Z,8.17
2023-01-08T05:08:57.839Z,7.63
2023-01-08T05:11:25.419Z,6.88
2023-01-08T05:13:53.182Z,7.55
2023-01-08T05:16:20.503Z,9.15
2023-01-08T05:18:47.406Z,8.37
2023-01-08T05:21:14.405Z,8.18
2023-01-08T05:23:46.826Z,7.97
2023-01-08T05:26:14.128Z,6.70
2023-01-08T05:28:40.687Z,6.50
2023-01-08T05:31:07.316Z,6.63
2023-01-08T05:33:33.903Z,7.78
2023-01-08T05:36:05.088Z,6.57
2023-01-08T05:38:34.141Z,5.47
2023-01-08T05:41:00.760Z,4.60
2023-01-08T05:43:27.450Z,5.23
2023-01-08T05:45:56.259Z,4.80
2023-01-08T05:48:25.290Z,4.22
2023-01-08T05:50:54.496Z,4.80
2023-01-08T05:53:21.432Z,4.22
2023-01-08T05:55:48.361Z,4.17
2023-01-08T05:58:18.945Z,4.07
2023-01-08T06:00:45.652Z,3.60
2023-01-08T06:03:12.356Z,3.90
2023-01-08T06:05:39.021Z,3.80
2023-01-08T06:08:08.825Z,3.43
2023-01-08T06:10:38.013Z,2.78
2023-01-08T06:13:10.860Z,3.42
2023-01-08T06:15:40.065Z,3.30
2023-01-08T06:18:06.768Z,3.22
2023-01-08T06:20:33.433Z,3.27
2023-01-08T06:23:02.323Z,3.65
2023-01-08T06:25:29.926Z,3.13
2023-01-08T06:27:56.526Z,3.65
2023-01-08T06:30:25.173Z,2.85
2023-01-08T06:32:59.849Z,2.90
2023-01-08T06:35:27.520Z,3.42
2023-01-08T06:37:56.864Z,3.05
2023-01-08T06:40:28.252Z,3.00
2023-01-08T06:42:54.835Z,3.10
2023-01-08T06:45:21.479Z,5.30
2023-01-08T06:47:50.856Z,6.03
2023-01-08T06:50:20.439Z,4.22
2023-01-08T06:52:56.596Z,3.05
2023-01-08T06:55:24.651Z,2.85
2023-01-08T06:57:58.581Z,2.97
2023-01-08T07:00:29.000Z,3.10
2023-01-08T07:02:58.114Z,3.22
2023-01-08T07:05:24.854Z,3.05
2023-01-08T07:07:55.951Z,2.88
2023-01-08T07:10:23.119Z,2.47
2023-01-08T07:12:52.158Z,3.13
2023-01-08T07:15:21.040Z,2.60
2023-01-08T07:17:50.569Z,2.45
2023-01-08T07:20:19.375Z,2.75
2023-01-08T07:22:45.969Z,2.77
2023-01-08T07:25:12.573Z,2.55
2023-01-08T07:27:39.130Z,2.88
2023-01-08T07:30:20.992Z,2.40
2023-01-08T07:33:00.906Z,2.78
2023-01-08T07:35:27.967Z,3.00
2023-01-08T07:37:54.932Z,2.75
2023-01-08T07:40:27.305Z,2.90
2023-01-08T07:42:58.733Z,3.08
2023-01-08T07:45:30.341Z,2.50
2023-01-08T07:47:58.618Z,3.13
2023-01-08T07:50:28.629Z,2.97
2023-01-08T07:53:01.674Z,3.40
2023-01-08T07:55:29.515Z,3.70
2023-01-08T07:57:58.759Z,3.90
2023-01-08T08:00:25.488Z,4.30
2023-01-08T08:02:54.254Z,4.18
2023-01-08T08:05:20.909Z,5.03
2023-01-08T08:07:47.447Z,4.72
2023-01-08T08:10:16.969Z,4.93
2023-01-08T08:12:45.167Z,5.40
2023-01-08T08:15:14.301Z,4.47
2023-01-08T08:17:45.143Z,4.65
2023-01-08T08:20:14.161Z,4.25
2023-01-08T08:22:47.831Z,4.40
2023-01-08T08:25:15.336Z,3.80
2023-01-08T08:27:43.286Z,4.03
2023-01-08T08:30:13.121Z,4.38
2023-01-08T08:32:42.065Z,4.30
2023-01-08T08:35:09.025Z,4.15
2023-01-08T08:37:37.937Z,4.00
2023-01-08T08:40:08.246Z,3.90
2023-01-08T08:42:35.012Z,4.13
2023-01-08T08:45:01.573Z,4.10
2023-01-08T08:47:28.107Z,3.88
2023-01-08T08:49:54.764Z,3.77
2023-01-08T08:52:26.150Z,3.88
2023-01-08T08:54:54.938Z,4.65
2023-01-08T08:57:23.938Z,5.15
2023-01-08T08:59:50.508Z,4.10
2023-01-08T09:02:17.285Z,3.73
2023-01-08T09:04:43.917Z,4.25
2023-01-08T09:07:12.941Z,4.10
2023-01-08T09:09:41.749Z,3.95
2023-01-08T09:12:10.713Z,4.10
2023-01-08T09:14:42.078Z,3.53
2023-01-08T09:17:08.675Z,4.43
2023-01-08T09:19:35.239Z,3.92
2023-01-08T09:22:05.546Z,4.05
2023-01-08T09:24:34.898Z,4.55
2023-01-08T09:27:01.753Z,3.70
2023-01-08T09:29:30.763Z,4.10
2023-01-08T09:32:00.546Z,4.90
2023-01-08T09:34:27.132Z,4.78
2023-01-08T09:36:53.788Z,5.20
2023-01-08T09:39:20.425Z,5.57
2023-01-08T09:41:53.250Z,7.05
2023-01-08T09:44:28.037Z,9.45
2023-01-08T09:46:59.211Z,8.40
2023-01-08T09:49:35.297Z,10.10
2023-01-08T09:52:02.568Z,5.70
2023-01-08T09:54:31.887Z,5.68
2023-01-08T09:57:04.290Z,5.53
2023-01-08T09:59:31.436Z,5.93
2023-01-08T10:02:00.563Z,6.25
2023-01-08T10:04:29.760Z,4.97
2023-01-08T10:07:14.305Z,5.68
2023-01-08T10:09:43.083Z,5.55
2023-01-08T10:12:15.425Z,5.78
2023-01-08T10:14:49.822Z,6.97
2023-01-08T10:17:46.558Z,6.33
2023-01-08T10:20:19.201Z,6.93
2023-01-08T10:22:54.318Z,7.57
2023-01-08T10:25:25.297Z,7.10
2023-01-08T10:27:59.726Z,6.63
2023-01-08T10:30:36.948Z,6.37
2023-01-08T10:33:06.774Z,6.47
2023-01-08T10:35:42.293Z,5.90
2023-01-08T10:38:32.764Z,6.68
2023-01-08T10:41:05.648Z,5.78
2023-01-08T10:43:42.420Z,4.93
2023-01-08T10:46:23.608Z,5.30
2023-01-08T10:48:59.064Z,5.20
2023-01-08T10:51:28.140Z,6.07
2023-01-08T10:54:01.137Z,5.47
2023-01-08T10:56:41.798Z,5.67
2023-01-08T10:59:22.165Z,5.72
2023-01-08T11:01:51.471Z,6.18
2023-01-08T11:04:27.867Z,5.85
2023-01-08T11:06:59.992Z,5.68
2023-01-08T11:09:32.837Z,5.10
2023-01-08T11:12:04.916Z,5.15
2023-01-08T11:14:35.205Z,4.50
2023-01-08T11:17:12.926Z,4.80
2023-01-08T11:19:40.002Z,4.18
2023-01-08T11:22:17.420Z,4.80
2023-01-08T11:24:48.030Z,4.05
2023-01-08T11:27:23.138Z,4.40
2023-01-08T11:30:07.057Z,3.92
2023-01-08T11:33:00.181Z,4.03
2023-01-08T11:35:37.833Z,4.10
2023-01-08T11:38:06.689Z,3.38
2023-01-08T11:40:48.675Z,3.50
2023-01-08T11:43:31.370Z,4.13
2023-01-08T11:46:16.110Z,3.47
2023-01-08T11:49:04.645Z,4.00
2023-01-08T11:52:01.085Z,4.45
2023-01-08T11:54:52.716Z,5.38
2023-01-08T11:57:34.190Z,6.55
2023-01-08T12:00:14.422Z,6.00
2023-01-08T12:02:58.180Z,4.50
2023-01-08T12:06:04.025Z,4.40
2023-01-08T12:08:48.870Z,6.32
2023-01-08T12:11:18.433Z,4.50
2023-01-08T12:13:50.751Z,6.53
2023-01-08T12:16:35.597Z,6.30
2023-01-08T12:19:30.565Z,6.53
2023-01-08T12:21:59.985Z,3.97
2023-01-08T12:25:16.599Z,4.03
2023-01-08T12:27:59.741Z,3.90
2023-01-08T12:30:54.263Z,3.40
2023-01-08T12:33:39.748Z,2.40
2023-01-08T12:36:12.774Z,2.50
2023-01-08T12:38:47.666Z,2.60
2023-01-08T12:41:18.556Z,4.03
2023-01-08T12:43:57.425Z,3.77
2023-01-08T12:46:29.524Z,3.40
2023-01-08T12:48:57.964Z,5.55
2023-01-08T12:51:31.604Z,5.25
2023-01-08T12:54:23.329Z,6.95
2023-01-08T12:57:02.961Z,5.77
2023-01-08T12:59:41.564Z,3.28
2023-01-08T13:02:25.816Z,2.83
2023-01-08T13:04:55.415Z,3.30
2023-01-08T13:07:30.755Z,2.72
2023-01-08T13:10:05.791Z,3.30
2023-01-08T13:12:40.458Z,3.05
2023-01-08T13:15:08.697Z,2.70
2023-01-08T13:17:37.946Z,3.30
2023-01-08T13:20:06.989Z,3.20
2023-01-08T13:22:36.056Z,3.60
2023-01-08T13:25:09.964Z,4.00
2023-01-08T13:27:36.612Z,7.90
2023-01-08T13:30:03.831Z,7.95
2023-01-08T13:32:39.630Z,6.55
2023-01-08T13:35:15.272Z,4.70
2023-01-08T13:37:45.611Z,4.38
2023-01-08T13:40:43.165Z,4.40
2023-01-08T13:43:21.753Z,3.80
2023-01-08T13:46:09.445Z,3.88
2023-01-08T13:48:47.427Z,7.90
2023-01-08T13:51:34.871Z,12.00
2023-01-08T13:54:14.047Z,6.28
2023-01-08T13:56:44.782Z,17.83
2023-01-08T13:59:29.975Z,8.50
2023-01-08T14:01:57.940Z,11.73
2023-01-08T14:04:27.055Z,22.73
2023-01-08T14:06:55.841Z,19.90
2023-01-08T14:09:24.627Z,5.88
2023-01-08T14:11:58.033Z,4.78
2023-01-08T14:14:24.826Z,3.60
2023-01-08T14:16:57.242Z,3.95
2023-01-08T14:19:26.131Z,3.10
2023-01-08T14:22:02.082Z,3.08
2023-01-08T14:24:28.759Z,3.15
2023-01-08T14:26:57.891Z,3.43
2023-01-08T14:29:30.043Z,2.35
2023-01-08T14:32:01.013Z,3.10
2023-01-08T14:34:30.905Z,3.20
2023-01-08T14:36:58.306Z,3.10
2023-01-08T14:39:38.390Z,4.93
2023-01-08T14:42:35.578Z,3.65
2023-01-08T14:45:06.445Z,3.10
2023-01-08T14:47:43.388Z,5.18
2023-01-08T14:50:27.373Z,3.70
2023-01-08T14:52:59.958Z,3.63
2023-01-08T14:55:37.406Z,3.55
2023-01-08T14:58:21.607Z,4.32
2023-01-08T15:00:57.251Z,9.70
2023-01-08T15:03:41.253Z,4.72
2023-01-08T15:06:11.570Z,3.27
2023-01-08T15:08:42.139Z,3.55
2023-01-08T15:11:22.064Z,3.15
2023-01-08T15:13:53.155Z,3.00
2023-01-08T15:16:43.225Z,3.80
2023-01-08T15:19:19.372Z,3.43
2023-01-08T15:21:50.443Z,2.90
2023-01-08T15:24:36.701Z,2.80
2023-01-08T15:27:10.330Z,2.47
2023-01-08T15:29:40.706Z,2.17
2023-01-08T15:32:12.333Z,2.93
2023-01-08T15:34:41.144Z,2.28
2023-01-08T15:37:07.717Z,2.33
2023-01-08T15:39:34.450Z,2.83
2023-01-08T15:42:36.979Z,2.60
2023-01-08T15:45:11.861Z,2.90
2023-01-08T15:47:38.477Z,2.60
2023-01-08T15:50:06.498Z,2.75
2023-01-08T15:52:38.311Z,2.63
2023-01-08T15:55:05.449Z,2.90
2023-01-08T15:57:34.695Z,2.67
2023-01-08T16:00:04.283Z,2.92
2023-01-08T16:02:40.295Z,3.60
2023-01-08T16:05:07.525Z,3.45
2023-01-08T16:07:34.153Z,2.70
2023-01-08T16:10:05.242Z,3.10
2023-01-08T16:12:34.208Z,2.85
2023-01-08T16:15:08.070Z,3.55
2023-01-08T16:17:37.548Z,3.85
2023-01-08T16:20:06.090Z,3.70
2023-01-08T16:22:35.182Z,3.40
2023-01-08T16:25:01.866Z,3.67
2023-01-08T16:27:33.360Z,3.58
2023-01-08T16:30:00.076Z,3.40
2023-01-08T16:32:26.722Z,3.38
2023-01-08T16:34:58.174Z,3.07
2023-01-08T16:37:24.745Z,3.72
2023-01-08T16:39:51.292Z,3.38
2023-01-08T16:42:20.850Z,3.60
2023-01-08T16:44:47.437Z,3.60
2023-01-08T16:47:16.479Z,2.90
2023-01-08T16:49:45.837Z,3.10
2023-01-08T16:52:14.962Z,3.50
2023-01-08T16:54:41.535Z,3.72
2023-01-08T16:57:08.062Z,3.50
2023-01-08T16:59:39.575Z,2.83
2023-01-08T17:02:06.813Z,3.63
2023-01-08T17:04:38.429Z,3.50
2023-01-08T17:07:05.571Z,3.60
2023-01-08T17:09:32.631Z,4.00
2023-01-08T17:11:59.225Z,4.30
2023-01-08T17:14:27.174Z,4.78
2023-01-08T17:16:54.010Z,4.40
2023-01-08T17:19:25.447Z,4.80
2023-01-08T17:21:54.494Z,6.03
2023-01-08T17:24:21.031Z,5.00
2023-01-08T17:26:47.567Z,4.57
2023-01-08T17:29:14.169Z,5.10
2023-01-08T17:31:43.156Z,4.50
2023-01-08T17:34:16.703Z,4.53
2023-01-08T17:36:43.308Z,4.40
2023-01-08T17:39:11.953Z,4.60
2023-01-08T17:41:59.645Z,4.97
2023-01-08T17:44:26.607Z,6.13
2023-01-08T17:46:55.568Z,5.75
2023-01-08T17:49:22.135Z,4.50
2023-01-08T17:51:53.360Z,5.00
2023-01-08T17:54:19.963Z,5.00
2023-01-08T17:56:49.557Z,5.15
2023-01-08T17:59:18.291Z,4.60
2023-01-08T18:01:47.875Z,5.17
2023-01-08T18:04:15.171Z,5.18
2023-01-08T18:06:42.337Z,5.03
2023-01-08T18:09:13.799Z,5.10
2023-01-08T18:11:43.465Z,4.47
2023-01-08T18:14:13.536Z,4.83
2023-01-08T18:16:45.874Z,4.90
2023-01-08T18:19:12.961Z,3.90
2023-01-08T18:21:39.653Z,3.70
2023-01-08T18:24:09.234Z,3.92
2023-01-08T18:26:40.619Z,4.47
2023-01-08T18:29:07.607Z,4.03
2023-01-08T18:31:38.966Z,5.03
2023-01-08T18:34:10.186Z,5.60
2023-01-08T18:36:36.955Z,5.22
2023-01-08T18:39:06.794Z,5.67
2023-01-08T18:41:52.205Z,5.78
2023-01-08T18:44:19.404Z,6.22
2023-01-08T18:46:48.385Z,6.80
2023-01-08T18:49:15.651Z,4.78
2023-01-08T18:51:44.805Z,5.37
2023-01-08T18:54:13.826Z,5.63
2023-01-08T18:56:46.500Z,5.95
2023-01-08T18:59:13.108Z,6.93
2023-01-08T19:01:39.795Z,6.85
2023-01-08T19:04:14.894Z,7.50
2023-01-08T19:06:43.883Z,6.55
2023-01-08T19:09:17.793Z,6.85
2023-01-08T19:11:44.527Z,7.40
2023-01-08T19:14:12.825Z,7.80
2023-01-08T19:16:40.239Z,8.70
2023-01-08T19:19:09.277Z,7.90
2023-01-08T19:21:35.892Z,8.15
2023-01-08T19:24:02.528Z,7.50
2023-01-08T19:26:31.648Z,8.32
2023-01-08T19:29:00.718Z,8.70
2023-01-08T19:31:29.720Z,9.27
2023-01-08T19:34:01.022Z,8.55
2023-01-08T19:36:27.921Z,8.27
2023-01-08T19:38:57.494Z,7.55
2023-01-08T19:41:42.440Z,6.70
2023-01-08T19:44:09.225Z,6.95
2023-01-08T19:46:36.597Z,6.47
2023-01-08T19:49:05.844Z,7.07
2023-01-08T19:51:36.263Z,6.90
2023-01-08T19:54:07.622Z,6.70
2023-01-08T19:56:34.197Z,7.32
2023-01-08T19:59:00.818Z,7.72
2023-01-08T20:01:28.533Z,7.28
2023-01-08T20:03:56.777Z,7.78
2023-01-08T20:06:29.784Z,7.03
2023-01-08T20:08:59.752Z,6.88
2023-01-08T20:11:30.063Z,7.30
2023-01-08T20:14:02.769Z,7.90
2023-01-08T20:16:29.939Z,7.47
2023-01-08T20:19:04.691Z,7.07
2023-01-08T20:21:33.260Z,7.25
2023-01-08T20:24:09.394Z,7.70
2023-01-08T20:26:42.972Z,8.05
2023-01-08T20:29:13.118Z,7.85
2023-01-08T20:31:44.167Z,8.77
2023-01-08T20:34:17.039Z,8.60
2023-01-08T20:36:47.100Z,8.30
2023-01-08T20:39:17.103Z,7.65
2023-01-08T20:42:00.817Z,8.55
2023-01-08T20:44:29.768Z,7.87
2023-01-08T20:46:56.380Z,7.40
2023-01-08T20:49:25.216Z,7.82
2023-01-08T20:52:00.416Z,7.57
2023-01-08T20:54:28.865Z,6.68
2023-01-08T20:56:57.019Z,7.20
2023-01-08T20:59:26.743Z,6.80
2023-01-08T21:01:57.130Z,6.72
2023-01-08T21:04:26.620Z,7.28
2023-01-08T21:06:53.279Z,6.50
2023-01-08T21:09:19.811Z,6.63
2023-01-08T21:11:46.448Z,6.90
2023-01-08T21:14:13.543Z,6.50
2023-01-08T21:16:43.679Z,7.65
2023-01-08T21:19:15.257Z,7.15
2023-01-08T21:21:41.851Z,7.47
2023-01-08T21:24:12.270Z,7.13
2023-01-08T21:26:42.153Z,6.93
2023-01-08T21:29:09.171Z,6.80
2023-01-08T21:31:38.745Z,6.32
2023-01-08T21:34:09.059Z,6.70
2023-01-08T21:36:35.990Z,6.55
2023-01-08T21:39:05.851Z,7.10
2023-01-08T21:41:51.482Z,6.88
2023-01-08T21:44:39.360Z,6.38
2023-01-08T21:47:09.894Z,6.97
2023-01-08T21:49:43.551Z,7.10
2023-01-08T21:52:29.213Z,6.63
2023-01-08T21:54:58.040Z,6.90
2023-01-08T21:57:28.084Z,6.78
2023-01-08T21:59:55.215Z,6.20
2023-01-08T22:02:25.160Z,6.43
2023-01-08T22:04:54.799Z,6.93
2023-01-08T22:07:23.597Z,6.97
2023-01-08T22:09:52.359Z,6.30
2023-01-08T22:12:19.000Z,6.70
2023-01-08T22:14:45.634Z,6.25
2023-01-08T22:17:14.823Z,6.32
2023-01-08T22:19:41.701Z,5.63
2023-01-08T22:22:10.745Z,6.65
2023-01-08T22:24:40.206Z,5.77
2023-01-08T22:27:08.155Z,6.25
2023-01-08T22:29:39.997Z,5.97
2023-01-08T22:32:06.592Z,6.53
2023-01-08T22:34:34.722Z,5.32
2023-01-08T22:37:04.751Z,6.00
2023-01-08T22:39:31.550Z,5.80
2023-01-08T22:41:58.175Z,5.75
2023-01-08T22:44:26.987Z,5.72
2023-01-08T22:46:53.562Z,5.10
2023-01-08T22:49:25.415Z,4.93
2023-01-08T22:51:55.589Z,5.20
2023-01-08T22:54:24.381Z,5.88
2023-01-08T22:56:51.003Z,6.15
2023-01-08T22:59:17.641Z,6.05
2023-01-08T23:01:44.222Z,6.57
2023-01-08T23:04:10.946Z,6.38
2023-01-08T23:06:37.586Z,6.05
2023-01-08T23:09:04.453Z,6.40
2023-01-08T23:11:33.098Z,6.38
2023-01-08T23:14:03.189Z,5.67
2023-01-08T23:16:32.509Z,5.60
2023-01-08T23:19:00.349Z,5.43
2023-01-08T23:21:27.307Z,5.45
2023-01-08T23:23:59.227Z,6.20
2023-01-08T23:26:29.701Z,5.80
2023-01-08T23:29:02.292Z,5.97
2023-01-08T23:31:32.565Z,5.95
2023-01-08T23:33:59.139Z,5.65
2023-01-08T23:36:28.061Z,5.80
2023-01-08T23:38:56.387Z,6.53
2023-01-08T23:41:35.241Z,6.10
2023-01-08T23:44:07.730Z,6.60
2023-01-08T23:46:37.441Z,5.30
2023-01-08T23:49:07.311Z,5.63
2023-01-08T23:51:36.809Z,5.43
2023-01-08T23:54:10.702Z,5.18
2023-01-08T23:56:39.470Z,5.07
2023-01-08T23:59:11.525Z,5.35
